createdAt,value
2022-09-17T00:01:11.659Z,1.57
2022-09-17T00:03:38.540Z,1.00
2022-09-17T00:06:11.308Z,0.80
2022-09-17T00:08:40.011Z,0.80
2022-09-17T00:11:16.144Z,1.00
2022-09-17T00:13:44.936Z,0.83
2022-09-17T00:16:12.915Z,1.17
2022-09-17T00:18:41.924Z,0.93
2022-09-17T00:21:19.943Z,0.80
2022-09-17T00:23:47.409Z,1.00
2022-09-17T00:26:14.506Z,0.77
2022-09-17T00:28:45.354Z,1.00
2022-09-17T00:31:12.613Z,1.03
2022-09-17T00:33:39.601Z,1.00
2022-09-17T00:36:06.951Z,0.90
2022-09-17T00:38:34.471Z,0.90
2022-09-17T00:41:03.115Z,1.10
2022-09-17T00:43:37.643Z,1.23
2022-09-17T00:46:10.099Z,1.17
2022-09-17T00:48:37.380Z,1.10
2022-09-17T00:51:09.119Z,1.20
2022-09-17T00:53:36.088Z,0.90
2022-09-17T00:56:14.952Z,1.20
2022-09-17T00:58:42.079Z,1.33
2022-09-17T01:01:09.211Z,1.50
2022-09-17T01:03:36.427Z,1.33
2022-09-17T01:06:18.070Z,1.03
2022-09-17T01:09:03.671Z,1.30
2022-09-17T01:11:39.574Z,1.40
2022-09-17T01:14:18.587Z,1.30
2022-09-17T01:16:54.233Z,1.40
2022-09-17T01:19:57.614Z,1.30
2022-09-17T01:22:34.412Z,1.30
2022-09-17T01:25:33.088Z,1.10
2022-09-17T01:28:24.503Z,1.40
2022-09-17T01:31:18.840Z,1.10
2022-09-17T01:33:53.935Z,1.40
2022-09-17T01:36:45.221Z,1.03
2022-09-17T01:39:26.300Z,1.20
2022-09-17T01:42:22.472Z,1.10
2022-09-17T01:45:20.516Z,1.20
2022-09-17T01:47:55.746Z,1.17
2022-09-17T01:50:33.575Z,1.00
2022-09-17T01:53:02.981Z,1.17
2022-09-17T01:55:35.566Z,1.33
2022-09-17T01:58:15.770Z,1.27
2022-09-17T02:00:49.631Z,1.00
2022-09-17T02:03:28.146Z,1.10
2022-09-17T02:06:02.230Z,1.37
2022-09-17T02:08:51.536Z,1.20
2022-09-17T02:11:19.843Z,1.00
2022-09-17T02:13:48.923Z,1.10
2022-09-17T02:16:30.584Z,1.20
2022-09-17T02:19:23.219Z,1.10
2022-09-17T02:22:09.523Z,0.80
2022-09-17T02:24:54.911Z,1.40
2022-09-17T02:27:53.697Z,0.90
2022-09-17T02:30:20.825Z,1.20
2022-09-17T02:32:48.926Z,1.20
2022-09-17T02:35:16.518Z,1.23
2022-09-17T02:37:44.463Z,1.23
2022-09-17T02:40:15.373Z,1.10
2022-09-17T02:43:16.113Z,1.40
2022-09-17T02:45:46.740Z,1.13
2022-09-17T02:48:19.705Z,1.20
2022-09-17T02:50:49.383Z,1.30
2022-09-17T02:53:25.179Z,1.40
2022-09-17T02:56:40.574Z,1.07
2022-09-17T02:59:24.965Z,1.23
2022-09-17T03:02:00.858Z,1.20
2022-09-17T03:04:29.618Z,1.50
2022-09-17T03:06:59.060Z,1.23
2022-09-17T03:09:26.665Z,1.30
2022-09-17T03:11:53.717Z,1.20
2022-09-17T03:14:20.784Z,1.43
2022-09-17T03:16:48.173Z,1.50
2022-09-17T03:19:15.165Z,1.17
2022-09-17T03:21:42.064Z,1.53
2022-09-17T03:24:10.988Z,1.53
2022-09-17T03:26:38.838Z,1.20
2022-09-17T03:29:05.826Z,1.43
2022-09-17T03:31:32.831Z,1.70
2022-09-17T03:33:59.784Z,1.50
2022-09-17T03:36:26.746Z,1.60
2022-09-17T03:38:57.763Z,1.50
2022-09-17T03:41:25.338Z,1.73
2022-09-17T03:43:53.305Z,2.07
2022-09-17T03:46:20.849Z,2.23
2022-09-17T03:48:47.799Z,1.70
2022-09-17T03:51:14.830Z,1.83
2022-09-17T03:53:41.838Z,2.00
2022-09-17T03:56:09.096Z,1.77
2022-09-17T03:58:36.638Z,1.90
2022-09-17T04:01:04.661Z,1.77
2022-09-17T04:03:32.447Z,2.07
2022-09-17T04:05:59.835Z,1.90
2022-09-17T04:08:27.203Z,1.80
2022-09-17T04:10:54.314Z,1.90
2022-09-17T04:13:21.520Z,1.80
2022-09-17T04:15:49.453Z,1.97
2022-09-17T04:18:16.774Z,1.67
2022-09-17T04:20:43.777Z,1.80
2022-09-17T04:23:12.765Z,1.70
2022-09-17T04:25:39.735Z,1.70
2022-09-17T04:28:06.720Z,1.80
2022-09-17T04:30:33.642Z,2.07
2022-09-17T04:33:00.664Z,1.83
2022-09-17T04:35:28.011Z,1.90
2022-09-17T04:37:56.906Z,1.90
2022-09-17T04:40:25.002Z,2.27
2022-09-17T04:42:56.314Z,1.80
2022-09-17T04:45:23.638Z,2.07
2022-09-17T04:47:53.216Z,2.07
2022-09-17T04:50:20.926Z,2.20
2022-09-17T04:52:48.432Z,2.00
2022-09-17T04:55:16.119Z,2.00
2022-09-17T04:57:50.585Z,1.67
2022-09-17T05:00:18.726Z,2.03
2022-09-17T05:02:47.420Z,1.70
2022-09-17T05:05:15.476Z,2.10
2022-09-17T05:07:42.730Z,2.37
2022-09-17T05:10:11.069Z,1.77
2022-09-17T05:12:38.318Z,1.83
2022-09-17T05:15:06.280Z,1.80
2022-09-17T05:17:33.435Z,1.77
2022-09-17T05:20:00.371Z,1.80
2022-09-17T05:22:27.321Z,1.87
2022-09-17T05:24:54.284Z,1.60
2022-09-17T05:27:21.281Z,1.80
2022-09-17T05:29:48.210Z,1.90
2022-09-17T05:32:15.354Z,1.90
2022-09-17T05:34:42.299Z,1.80
2022-09-17T05:37:12.584Z,1.90
2022-09-17T05:39:39.748Z,1.70
2022-09-17T05:42:07.002Z,1.87
2022-09-17T05:44:33.924Z,1.80
2022-09-17T05:47:00.863Z,1.97
2022-09-17T05:49:27.858Z,2.07
2022-09-17T05:51:55.111Z,2.30
2022-09-17T05:54:22.115Z,2.30
2022-09-17T05:56:52.794Z,2.40
2022-09-17T05:59:19.802Z,2.30
2022-09-17T06:01:47.112Z,2.30
2022-09-17T06:04:14.546Z,2.63
2022-09-17T06:06:41.822Z,2.23
2022-09-17T06:09:09.334Z,2.50
2022-09-17T06:11:39.748Z,2.83
2022-09-17T06:14:06.740Z,3.10
2022-09-17T06:16:33.730Z,2.70
2022-09-17T06:19:00.816Z,2.90
2022-09-17T06:21:27.832Z,3.07
2022-09-17T06:23:55.110Z,2.97
2022-09-17T06:26:22.151Z,2.97
2022-09-17T06:28:49.059Z,3.73
2022-09-17T06:31:15.976Z,3.50
2022-09-17T06:33:43.040Z,3.67
2022-09-17T06:36:14.009Z,3.23
2022-09-17T06:38:41.875Z,3.17
2022-09-17T06:41:09.112Z,3.40
2022-09-17T06:43:36.125Z,3.37
2022-09-17T06:46:09.194Z,3.20
2022-09-17T06:48:37.648Z,3.13
2022-09-17T06:51:11.162Z,3.53
2022-09-17T06:53:39.347Z,3.73
2022-09-17T06:56:08.467Z,3.73
2022-09-17T06:58:38.896Z,4.13
2022-09-17T07:01:06.472Z,3.57
2022-09-17T07:03:34.528Z,3.40
2022-09-17T07:06:01.551Z,3.43
2022-09-17T07:08:28.620Z,3.70
2022-09-17T07:10:56.592Z,4.17
2022-09-17T07:13:24.190Z,3.33
2022-09-17T07:15:57.941Z,4.27
2022-09-17T07:18:25.939Z,3.93
2022-09-17T07:20:57.587Z,4.63
2022-09-17T07:23:25.981Z,4.50
2022-09-17T07:25:54.720Z,4.23
2022-09-17T07:28:22.659Z,4.20
2022-09-17T07:30:50.834Z,3.10
2022-09-17T07:33:23.189Z,2.63
2022-09-17T07:35:58.498Z,2.50
2022-09-17T07:38:26.657Z,2.37
2022-09-17T07:41:15.065Z,2.40
2022-09-17T07:43:43.096Z,2.47
2022-09-17T07:46:16.262Z,2.67
2022-09-17T07:48:43.474Z,2.93
2022-09-17T07:51:19.975Z,3.43
2022-09-17T07:53:47.825Z,2.80
2022-09-17T07:56:15.143Z,2.30
2022-09-17T07:58:42.767Z,2.13
2022-09-17T08:01:15.366Z,2.20
2022-09-17T08:03:43.812Z,2.13
2022-09-17T08:06:14.416Z,2.47
2022-09-17T08:08:42.402Z,2.30
2022-09-17T08:11:23.657Z,2.13
2022-09-17T08:13:59.947Z,2.03
2022-09-17T08:16:27.064Z,1.83
2022-09-17T08:18:56.593Z,2.30
2022-09-17T08:21:24.118Z,2.63
2022-09-17T08:23:51.200Z,2.10
2022-09-17T08:26:21.625Z,1.83
2022-09-17T08:28:56.534Z,1.70
2022-09-17T08:31:26.553Z,2.03
2022-09-17T08:33:53.535Z,2.27
2022-09-17T08:36:22.719Z,1.97
2022-09-17T08:38:53.766Z,1.80
2022-09-17T08:41:46.919Z,1.60
2022-09-17T08:44:47.133Z,2.10
2022-09-17T08:47:39.159Z,2.20
2022-09-17T08:50:25.904Z,2.40
2022-09-17T08:53:22.485Z,1.77
2022-09-17T08:56:27.735Z,1.80
2022-09-17T08:58:54.958Z,1.80
2022-09-17T09:01:45.248Z,2.27
2022-09-17T09:04:36.467Z,1.70
2022-09-17T09:07:14.195Z,2.20
2022-09-17T09:10:00.869Z,2.47
2022-09-17T09:12:31.822Z,1.73
2022-09-17T09:15:15.935Z,1.97
2022-09-17T09:17:46.259Z,1.77
2022-09-17T09:20:49.541Z,1.50
2022-09-17T09:23:27.774Z,1.77
2022-09-17T09:26:12.159Z,1.57
2022-09-17T09:28:48.228Z,1.50
2022-09-17T09:31:52.147Z,1.67
2022-09-17T09:34:19.399Z,1.63
2022-09-17T09:36:47.130Z,1.70
2022-09-17T09:39:30.718Z,1.27
2022-09-17T09:42:05.772Z,1.83
2022-09-17T09:44:32.947Z,1.67
2022-09-17T09:47:03.009Z,1.97
2022-09-17T09:49:50.261Z,1.80
2022-09-17T09:52:24.161Z,1.73
2022-09-17T09:55:21.300Z,1.70
2022-09-17T09:57:55.899Z,1.43
2022-09-17T10:00:29.487Z,1.60
2022-09-17T10:03:15.474Z,1.30
2022-09-17T10:06:01.227Z,1.20
2022-09-17T10:08:34.361Z,1.70
2022-09-17T10:11:04.526Z,1.57
2022-09-17T10:13:36.798Z,1.50
2022-09-17T10:16:18.931Z,1.80
2022-09-17T10:18:51.474Z,1.50
2022-09-17T10:21:31.811Z,2.10
2022-09-17T10:24:00.079Z,2.03
2022-09-17T10:26:35.698Z,3.77
2022-09-17T10:29:12.416Z,3.20
2022-09-17T10:31:53.915Z,2.63
2022-09-17T10:34:26.938Z,2.53
2022-09-17T10:36:58.566Z,2.10
2022-09-17T10:39:25.616Z,2.17
2022-09-17T10:42:04.723Z,1.77
2022-09-17T10:44:36.724Z,1.90
2022-09-17T10:47:13.592Z,1.63
2022-09-17T10:49:49.633Z,1.50
2022-09-17T10:52:22.660Z,1.20
2022-09-17T10:55:21.045Z,1.20
2022-09-17T10:58:26.267Z,0.97
2022-09-17T11:01:38.898Z,1.00
2022-09-17T11:04:21.017Z,0.80
2022-09-17T11:07:11.943Z,1.67
2022-09-17T11:10:08.297Z,1.20
2022-09-17T11:12:39.360Z,0.70
2022-09-17T11:15:33.463Z,1.00
2022-09-17T11:18:28.584Z,1.80
2022-09-17T11:21:41.508Z,0.90
2022-09-17T11:24:27.387Z,1.13
2022-09-17T11:27:17.831Z,1.50
2022-09-17T11:30:10.690Z,1.20
2022-09-17T11:32:56.564Z,1.00
2022-09-17T11:35:45.458Z,1.00
2022-09-17T11:38:24.091Z,1.33
2022-09-17T11:41:27.622Z,1.00
2022-09-17T11:44:29.882Z,1.10
2022-09-17T11:47:09.880Z,0.90
2022-09-17T11:49:45.490Z,1.17
2022-09-17T11:52:21.850Z,1.00
2022-09-17T11:55:03.079Z,1.10
2022-09-17T11:57:37.687Z,1.23
2022-09-17T12:00:16.273Z,1.33
2022-09-17T12:02:52.320Z,1.00
2022-09-17T12:05:36.310Z,1.10
2022-09-17T12:08:20.987Z,1.47
2022-09-17T12:11:22.955Z,1.40
2022-09-17T12:14:00.523Z,1.60
2022-09-17T12:16:39.103Z,1.47
2022-09-17T12:19:17.334Z,1.70
2022-09-17T12:21:51.379Z,1.40
2022-09-17T12:24:29.421Z,1.07
2022-09-17T12:27:04.889Z,1.00
2022-09-17T12:30:07.147Z,1.00
2022-09-17T12:33:11.906Z,0.70
2022-09-17T12:36:05.346Z,0.90
2022-09-17T12:38:50.876Z,1.10
2022-09-17T12:41:22.303Z,1.00
2022-09-17T12:44:11.329Z,0.83
2022-09-17T12:46:59.210Z,0.83
2022-09-17T12:49:38.352Z,2.17
2022-09-17T12:52:45.043Z,0.93
2022-09-17T12:55:25.043Z,0.97
2022-09-17T12:58:07.536Z,1.07
2022-09-17T13:00:42.790Z,0.60
2022-09-17T13:03:23.915Z,1.10
2022-09-17T13:06:18.444Z,1.27
2022-09-17T13:09:25.675Z,1.03
2022-09-17T13:12:10.707Z,0.50
2022-09-17T13:14:43.490Z,0.70
2022-09-17T13:17:27.723Z,0.90
2022-09-17T13:20:11.544Z,0.90
2022-09-17T13:22:48.883Z,0.80
2022-09-17T13:25:18.475Z,0.73
2022-09-17T13:27:47.578Z,0.80
2022-09-17T13:30:19.209Z,0.83
2022-09-17T13:32:51.617Z,1.37
2022-09-17T13:35:18.649Z,0.80
2022-09-17T13:37:58.554Z,1.03
2022-09-17T13:40:33.474Z,0.93
2022-09-17T13:43:14.197Z,1.00
2022-09-17T13:45:59.497Z,1.13
2022-09-17T13:48:36.100Z,0.80
2022-09-17T13:51:30.984Z,0.90
2022-09-17T13:54:05.133Z,0.87
2022-09-17T13:56:35.227Z,0.77
2022-09-17T13:59:09.652Z,0.83
2022-09-17T14:02:00.834Z,0.67
2022-09-17T14:04:40.479Z,0.60
2022-09-17T14:07:26.975Z,0.70
2022-09-17T14:10:02.566Z,0.80
2022-09-17T14:12:41.487Z,0.70
2022-09-17T14:15:53.924Z,0.93
2022-09-17T14:18:27.495Z,0.80
2022-09-17T14:21:06.547Z,0.83
2022-09-17T14:23:52.399Z,0.53
2022-09-17T14:26:58.067Z,0.90
2022-09-17T14:29:34.827Z,0.80
2022-09-17T14:32:02.020Z,0.77
2022-09-17T14:34:29.359Z,0.70
2022-09-17T14:36:57.103Z,0.90
2022-09-17T14:39:38.390Z,1.17
2022-09-17T14:42:13.409Z,0.87
2022-09-17T14:45:01.939Z,0.93
2022-09-17T14:47:29.136Z,0.90
2022-09-17T14:50:16.869Z,0.73
2022-09-17T14:52:50.022Z,0.87
2022-09-17T14:55:18.821Z,0.50
2022-09-17T14:57:54.976Z,0.80
2022-09-17T15:00:47.186Z,0.60
2022-09-17T15:03:22.485Z,0.90
2022-09-17T15:05:51.061Z,0.70
2022-09-17T15:08:21.326Z,0.80
2022-09-17T15:11:02.010Z,0.70
2022-09-17T15:13:31.947Z,0.93
2022-09-17T15:16:12.856Z,1.20
2022-09-17T15:18:49.135Z,0.70
2022-09-17T15:21:39.232Z,0.80
2022-09-17T15:24:38.747Z,0.80
2022-09-17T15:27:13.823Z,0.77
2022-09-17T15:29:46.919Z,0.53
2022-09-17T15:32:14.630Z,0.93
2022-09-17T15:34:42.355Z,0.70
2022-09-17T15:37:19.571Z,0.70
2022-09-17T15:39:52.266Z,0.53
2022-09-17T15:42:24.329Z,0.70
2022-09-17T15:44:51.639Z,0.90
2022-09-17T15:47:57.049Z,0.70
2022-09-17T15:50:29.881Z,1.00
2022-09-17T15:53:09.297Z,0.80
2022-09-17T15:55:40.033Z,0.97
2022-09-17T15:58:24.680Z,0.90
2022-09-17T16:01:16.040Z,0.80
2022-09-17T16:03:45.971Z,0.80
2022-09-17T16:06:19.130Z,0.97
2022-09-17T16:08:50.205Z,0.50
2022-09-17T16:11:23.440Z,1.00
2022-09-17T16:13:52.125Z,0.77
2022-09-17T16:16:36.930Z,0.83
2022-09-17T16:19:05.957Z,0.80
2022-09-17T16:21:33.013Z,0.60
2022-09-17T16:23:59.983Z,0.80
2022-09-17T16:26:32.565Z,0.60
2022-09-17T16:29:11.019Z,0.80
2022-09-17T16:31:38.001Z,0.70
2022-09-17T16:34:05.123Z,0.50
2022-09-17T16:36:32.334Z,0.63
2022-09-17T16:38:59.869Z,0.80
2022-09-17T16:41:27.555Z,0.60
2022-09-17T16:43:54.460Z,1.00
2022-09-17T16:46:21.511Z,0.63
2022-09-17T16:48:51.956Z,0.80
2022-09-17T16:51:19.603Z,0.60
2022-09-17T16:53:46.980Z,1.10
2022-09-17T16:56:17.115Z,1.03
2022-09-17T16:58:44.259Z,0.90
2022-09-17T17:01:16.190Z,0.93
2022-09-17T17:03:45.720Z,0.80
2022-09-17T17:06:19.917Z,0.57
2022-09-17T17:08:47.333Z,0.60
2022-09-17T17:11:14.602Z,0.43
2022-09-17T17:13:45.627Z,1.10
2022-09-17T17:16:14.762Z,1.30
2022-09-17T17:18:45.289Z,2.10
2022-09-17T17:21:14.046Z,1.07
2022-09-17T17:23:43.594Z,0.67
2022-09-17T17:26:10.737Z,0.40
2022-09-17T17:28:38.105Z,0.50
2022-09-17T17:31:06.431Z,0.63
2022-09-17T17:33:34.102Z,0.80
2022-09-17T17:36:07.325Z,0.70
2022-09-17T17:38:35.643Z,0.80
2022-09-17T17:41:08.446Z,0.80
2022-09-17T17:43:36.051Z,0.70
2022-09-17T17:46:06.827Z,0.50
2022-09-17T17:48:34.639Z,0.90
2022-09-17T17:51:06.337Z,1.27
2022-09-17T17:53:33.825Z,1.13
2022-09-17T17:56:06.789Z,1.17
2022-09-17T17:58:34.840Z,1.67
2022-09-17T18:01:13.931Z,0.80
2022-09-17T18:03:41.236Z,2.73
2022-09-17T18:06:08.914Z,1.30
2022-09-17T18:08:40.523Z,3.73
2022-09-17T18:11:10.139Z,2.20
2022-09-17T18:13:39.319Z,1.30
2022-09-17T18:16:09.159Z,1.50
2022-09-17T18:18:45.261Z,1.00
2022-09-17T18:21:18.417Z,1.30
2022-09-17T18:23:46.294Z,1.40
2022-09-17T18:26:24.805Z,1.80
2022-09-17T18:28:52.302Z,2.83
2022-09-17T18:31:28.800Z,1.50
2022-09-17T18:34:00.511Z,1.90
2022-09-17T18:36:29.703Z,1.67
2022-09-17T18:39:11.078Z,1.60
2022-09-17T18:41:48.928Z,1.40
2022-09-17T18:44:16.030Z,1.30
2022-09-17T18:46:43.283Z,1.47
2022-09-17T18:49:10.445Z,1.20
2022-09-17T18:51:38.022Z,0.70
2022-09-17T18:54:06.087Z,1.10
2022-09-17T18:56:33.244Z,1.20
2022-09-17T18:59:04.372Z,1.30
2022-09-17T19:01:33.446Z,1.30
2022-09-17T19:04:00.543Z,1.60
2022-09-17T19:06:27.988Z,2.13
2022-09-17T19:09:00.097Z,3.20
2022-09-17T19:11:27.889Z,1.60
2022-09-17T19:13:55.512Z,1.70
2022-09-17T19:16:22.975Z,2.60
2022-09-17T19:18:50.371Z,2.10
2022-09-17T19:21:20.646Z,1.47
2022-09-17T19:23:50.544Z,1.33
2022-09-17T19:26:20.651Z,1.03
2022-09-17T19:28:48.078Z,1.10
2022-09-17T19:31:17.173Z,1.37
2022-09-17T19:33:44.766Z,1.27
2022-09-17T19:36:14.556Z,1.17
2022-09-17T19:38:41.864Z,1.20
2022-09-17T19:41:17.799Z,1.30
2022-09-17T19:43:45.722Z,1.67
2022-09-17T19:46:15.096Z,1.17
2022-09-17T19:48:53.526Z,1.60
2022-09-17T19:51:21.912Z,1.40
2022-09-17T19:53:48.874Z,1.20
2022-09-17T19:56:18.500Z,1.30
2022-09-17T19:58:45.961Z,1.20
2022-09-17T20:01:13.859Z,1.23
2022-09-17T20:03:42.255Z,1.07
2022-09-17T20:06:11.643Z,1.20
2022-09-17T20:08:51.132Z,1.60
2022-09-17T20:11:19.779Z,1.20
2022-09-17T20:13:47.157Z,1.00
2022-09-17T20:16:18.676Z,1.20
2022-09-17T20:18:46.584Z,0.90
2022-09-17T20:21:19.335Z,1.40
2022-09-17T20:23:47.183Z,1.97
2022-09-17T20:26:14.943Z,1.20
2022-09-17T20:28:42.925Z,1.37
2022-09-17T20:31:18.980Z,1.40
2022-09-17T20:33:46.943Z,1.10
2022-09-17T20:36:19.407Z,1.23
2022-09-17T20:41:36.040Z,1.10
2022-09-17T20:44:03.186Z,1.13
2022-09-17T20:46:30.408Z,1.00
2022-09-17T20:48:58.616Z,1.20
2022-09-17T20:51:28.443Z,1.03
2022-09-17T20:53:57.237Z,0.87
2022-09-17T20:56:26.995Z,1.13
2022-09-17T20:59:09.382Z,0.80
2022-09-17T21:01:37.788Z,1.17
2022-09-17T21:04:07.730Z,1.10
2022-09-17T21:06:41.094Z,0.80
2022-09-17T21:09:15.865Z,1.07
2022-09-17T21:11:47.538Z,0.87
2022-09-17T21:14:18.549Z,0.83
2022-09-17T21:16:49.029Z,0.70
2022-09-17T21:19:16.653Z,0.80
2022-09-17T21:21:43.980Z,0.93
2022-09-17T21:24:11.170Z,0.80
2022-09-17T21:26:38.117Z,0.80
2022-09-17T21:29:05.312Z,0.90
2022-09-17T21:31:34.444Z,0.83
2022-09-17T21:34:03.854Z,0.93
2022-09-17T21:36:33.637Z,0.87
2022-09-17T21:39:04.066Z,0.70
2022-09-17T21:41:31.651Z,0.80
2022-09-17T21:43:59.259Z,0.90
2022-09-17T21:46:29.035Z,0.90
2022-09-17T21:48:59.948Z,1.00
2022-09-17T21:51:32.047Z,0.70
2022-09-17T21:54:01.301Z,1.10
2022-09-17T21:56:29.099Z,0.90
2022-09-17T21:59:01.670Z,1.30
2022-09-17T22:01:31.896Z,0.93
2022-09-17T22:04:00.148Z,1.10
2022-09-17T22:06:29.801Z,0.90
2022-09-17T22:08:58.186Z,1.00
2022-09-17T22:11:29.532Z,1.10
2022-09-17T22:13:57.683Z,1.57
2022-09-17T22:16:27.081Z,1.40
2022-09-17T22:18:54.476Z,1.80
2022-09-17T22:21:24.303Z,1.37
2022-09-17T22:23:53.144Z,1.13
2022-09-17T22:26:22.287Z,1.40
2022-09-17T22:28:50.330Z,1.33
2022-09-17T22:31:18.463Z,1.10
2022-09-17T22:33:50.941Z,1.43
2022-09-17T22:36:22.940Z,1.37
2022-09-17T22:38:58.363Z,1.17
2022-09-17T22:41:29.366Z,1.20
2022-09-17T22:43:59.103Z,1.57
2022-09-17T22:46:31.752Z,1.47
2022-09-17T22:48:59.091Z,1.20
2022-09-17T22:51:27.982Z,1.57
2022-09-17T22:53:55.816Z,1.30
2022-09-17T22:56:24.235Z,1.30
2022-09-17T22:58:51.426Z,1.70
2022-09-17T23:01:21.272Z,1.20
2022-09-17T23:03:52.216Z,1.87
2022-09-17T23:06:23.836Z,1.30
2022-09-17T23:08:51.296Z,1.00
2022-09-17T23:11:21.259Z,1.47
2022-09-17T23:13:49.078Z,1.47
2022-09-17T23:16:16.609Z,0.97
2022-09-17T23:18:43.660Z,1.13
2022-09-17T23:21:16.768Z,1.20
2022-09-17T23:23:45.814Z,1.10
2022-09-17T23:26:18.813Z,1.40
2022-09-17T23:28:46.511Z,0.90
2022-09-17T23:31:21.090Z,1.07
2022-09-17T23:33:48.925Z,1.13
2022-09-17T23:36:25.079Z,1.27
2022-09-17T23:38:53.747Z,1.20
2022-09-17T23:41:23.852Z,1.17
2022-09-17T23:44:00.254Z,1.47
2022-09-17T23:46:30.014Z,1.20
2022-09-17T23:48:57.175Z,1.10
2022-09-17T23:51:26.122Z,1.40
2022-09-17T23:53:54.503Z,1.23
2022-09-17T23:56:25.542Z,1.47
2022-09-17T23:58:54.334Z,1.60
